Carson Valley, Nevada Weather observations

Data are for 10 minute period ending at time listed.
 Day   Time   Solar   Ave.   Ave.  Ave.  Vector  Max.   Baro.   Total    
  of    of     Rad.   Air    Rel.  Wind   Wind   Wind  Press.  Precip.   
Year   Day            Temp.  Hum.  Speed  Dir.   Gust                    
2014   (PST)  Kw/m2    F      %     mph   deg.    mph    mb.     in.     
-------------------------------------------------------------------------
 355    1:50   0.00   54.5    52    4.9   256    13.6   860.5    0.00 
 355    2:00   0.00   54.3    52    3.3   322    12.1   860.5    0.00 
 355    2:10   0.00   53.5    54    4.6   153    10.0   860.6    0.00 
 355    2:20   0.00   53.4    55    6.0   141    13.2   860.5    0.00 
 355    2:30   0.00   53.9    55    3.7   155     9.2   860.6    0.00 
 355    2:40   0.00   53.2    56    7.6    61    12.1   860.5    0.00 
 355    2:50   0.00   53.7    56    6.2    46    11.9   860.5    0.00 
 355    3:00   0.00   53.6    56    8.7    70    18.9   860.5    0.00 
 355    3:10   0.00   54.4    55    8.0    98    14.1   860.4    0.00 
 355    3:20   0.00   54.7    54    7.5    76    29.1   860.2    0.00 
 355    3:30   0.00   54.1    56    6.0   129    11.9   860.1    0.00 
 355    3:40   0.00   53.7    57    3.2    67     8.5   860.1    0.00 
 355    3:50   0.00   54.0    56    5.5    92    17.5   859.8    0.00 
 355    4:00   0.00   54.1    56    7.7    40    14.8   859.7    0.00 
 355    4:10   0.00   54.5    56    8.3   359    14.0   859.8    0.00 
 355    4:20   0.00   55.5    53    5.5   333    11.2   859.8    0.00 
 355    4:30   0.00   56.2    52    5.4   225    16.7   859.7    0.00 
 355    4:40   0.00   55.6    54    5.5   313    10.7   859.7    0.00 
 355    4:50   0.00   55.2    54    9.2   302    19.0   859.8    0.00 
 355    5:00   0.00   55.8    53    8.0   292    22.7   859.9    0.00 
 355    5:10   0.00   55.5    53   10.2   257    16.9   859.9    0.00 
 355    5:20   0.00   54.2    56    5.5   233     9.2   859.9    0.00 
 355    5:30   0.00   53.6    57    5.3    32    11.9   860.0    0.00 
 355    5:40   0.00   55.6    53    8.0   273    15.6   860.0    0.00 
 355    5:50   0.00   55.5    53    8.9   230    18.3   860.1    0.00 
 355    6:00   0.00   55.4    53    9.6   248    19.4   860.1    0.00 
 355    6:10   0.00   55.3    53    7.6   251    13.2   860.1    0.00 
 355    6:20   0.00   55.3    53   10.3   234    24.3   860.0    0.00 
 355    6:30   0.00   55.4    52    7.5   217    13.7   860.0    0.00 
 355    6:40   0.00   56.0    50    5.2   218    11.5   860.1    0.00 
 355    6:50   0.00   55.9    50    4.6   257    15.1   860.1    0.00 
 355    7:00   0.00   54.9    53    4.8    32     7.2   860.1    0.00 
 355    7:10   0.00   53.3    56    4.4   350     7.8   860.2    0.00 
 355    7:20   0.00   54.8    52    4.9    70     8.3   860.0    0.00 
 355    7:30   0.01   55.5    50    4.8    39     9.4   860.1    0.00 
 355    7:40   0.01   56.2    48    3.3   280     9.9   860.1    0.00 
 355    7:50   0.02   55.1    49    4.1   139     9.1   860.3    0.00 
 355    8:00   0.04   56.0    48    3.3   249     8.5   860.6    0.00 
 355    8:10   0.07   55.2    49    4.7    41    12.5   860.8    0.00 
 355    8:20   0.11   56.8    46    5.6   132    15.8   861.0    0.00 
 355    8:30   0.12   57.1    45    3.5   347    10.8   861.3    0.00 
 355    8:40   0.12   57.0    46    5.7   149    14.6   861.5    0.00 
 355    8:50   0.10   56.6    47    5.2    43    14.8   861.6    0.00 
 355    9:00   0.10   56.5    48    5.2   165    14.8   861.6    0.00 
 355    9:10   0.12   56.6    47    5.1   147     8.3   861.7    0.00 
 355    9:20   0.16   57.1    47    3.7    57     8.8   861.9    0.00 
 355    9:30   0.17   57.5    46    4.8    65     8.5   861.8    0.00 
 355    9:40   0.14   57.3    47    4.4   141     8.3   862.1    0.00 
 355    9:50   0.14   56.4    49   10.2   284    24.9   862.5    0.00 
 355   10:00   0.13   55.8    50   14.2   266    25.1   862.5    0.00 
 355   10:10   0.11   55.3    51   14.6   266    28.8   862.8    0.00 
 355   10:20   0.11   55.0    52   14.8   263    28.4   862.7    0.00 
 355   10:30   0.12   54.8    53    8.8   286    23.9   862.4    0.00 
 355   10:40   0.14   55.3    52    5.8   262    24.8   862.1    0.00 
 355   10:50   0.17   55.2    51   10.6   333    27.8   861.9    0.00 
 355   11:00   0.21   55.8    51    9.4   329    24.7   862.1    0.00 
 355   11:10   0.17   56.0    50    9.2   272    15.7   862.1    0.00 
 355   11:20   0.15   55.9    51   12.8   292    24.3   862.1    0.00 
 355   11:30   0.14   56.6    48   12.3   245    23.8   862.1    0.00 
 355   11:40   0.17   57.0    47    8.2   232    17.6   862.1    0.00 
 355   11:50   0.17   57.2    48    9.0   271    16.3   862.0    0.00 
 355   12:00   0.19   57.5    47    5.6   176    15.5   862.1    0.00 
 355   12:10   0.20   57.3    48    7.6   306    18.4   861.9    0.00 
 355   12:20   0.22   57.1    49   11.9   284    27.6   861.7    0.00 
 355   12:30   0.22   57.4    49   12.3   276    21.6   861.5    0.00 
 355   12:40   0.21   57.6    48    9.5   217    23.0   861.5    0.00 
 355   12:50   0.30   58.0    48    8.1   289    18.5   861.5    0.00 
 355   13:00   0.33   58.0    49    9.3   256    25.1   861.5    0.00 
 355   13:10   0.34   58.0    48   10.2   237    22.6   861.5    0.00 
 355   13:20   0.45   58.6    48    6.6   146    18.1   861.7    0.00 
 355   13:30   0.45   59.6    46    6.2   123    18.7   861.8    0.00 
 355   13:40   0.38   59.4    47    7.2   194    18.3   861.9    0.00 
 355   13:50   0.32   57.7    50    6.4   242    17.1   861.8    0.00 
 355   14:00   0.31   57.5    50    6.2   254    21.4   861.9    0.00 
 355   14:10   0.30   57.8    50    5.3   276    13.7   862.1    0.00 
 355   14:20   0.25   58.1    49    3.9   201    10.7   862.1    0.00 
 355   14:30   0.28   57.9    49    6.3   263    25.6   862.1    0.00 
 355   14:40   0.28   57.7    49   10.3   280    23.9   862.0    0.00 
 355   14:50   0.20   57.4    49   10.7   276    24.5   862.0    0.00 
 355   15:00   0.18   57.2    49    7.5   311    18.3   862.1    0.00 
 355   15:10   0.20   57.5    48    5.7   337    12.5   862.1    0.00 
 355   15:20   0.17   57.6    48    9.2   261    21.9   862.2    0.00 
 355   15:30   0.17   57.7    48    7.7   330    20.8   862.4    0.00 
 355   15:40   0.11   57.7    48    2.9   348     6.5   862.5    0.00 
 355   15:50   0.06   57.0    49    6.0   351    16.7   862.7    0.00 
 355   16:00   0.05   56.6    50    4.8   289     9.0   862.5    0.00 
 355   16:10   0.05   56.6    49    4.3   246     8.2   862.6    0.00 
 355   16:20   0.03   56.7    49    3.4   268    11.5   862.6    0.00 
 355   16:30   0.01   56.1    50    3.6   302     8.8   862.5    0.00 
 355   16:40   0.01   55.4    51    6.9   240    19.8   862.6    0.00 
 355   16:50   0.01   55.5    51    9.0   245    18.3   862.8    0.00 
 355   17:00   0.00   54.8    53    5.1   238     8.4   862.8    0.00 
 355   17:10   0.00   55.3    51    7.0   164    12.6   862.6    0.00 
 355   17:20   0.00   55.4    50    4.1   192    12.1   862.4    0.00 
 355   17:30   0.00   55.5    49    4.7    92     9.9   862.6    0.00 
 355   17:40   0.00   54.6    52    6.2   140    13.3   862.7    0.00 
 355   17:50   0.00   54.2    53    6.7   220    11.8   862.9    0.00 
 355   18:00   0.00   54.9    50    5.1   276    14.1   863.0    0.00 
 355   18:10   0.00   54.7    50    5.5   148    13.8   862.9    0.00 
 355   18:20   0.00   54.1    51    8.4    99    17.8   863.1    0.00 
 355   18:30   0.00   54.4    50    8.0   209    18.0   863.1    0.00 
 355   18:40   0.00   54.6    49    7.2   216    14.6   863.2    0.00 
 355   18:50   0.00   53.8    51   12.4   222    20.8   863.1    0.00 
 355   19:00   0.00   53.9    51   11.6   237    20.6   863.1    0.00 
 355   19:10   0.00   53.7    51   13.0   250    23.5   863.1    0.00 
 355   19:20   0.00   53.4    52   13.3   249    21.9   863.1    0.00 
 355   19:30   0.00   53.9    50   14.2   263    22.2   863.1    0.00 
 355   19:40   0.00   53.3    51   10.1   267    17.5   863.3    0.00 
 355   19:50   0.00   53.0    52    8.2   262    15.1   863.4    0.00 
 355   20:00   0.00   52.5    52    9.8   273    17.5   863.3    0.00 
 355   20:10   0.00   52.7    51   10.0   278    16.8   863.3    0.00 
 355   20:20   0.00   52.8    50    9.6   267    15.3   863.3    0.00 
 355   20:30   0.00   51.5    53    7.9   289    13.5   863.3    0.00 
 355   20:40   0.00   51.0    54    8.5   288    12.7   863.3    0.00 
 355   20:50   0.00   50.1    56    6.0   320     9.9   863.4    0.00 
 355   21:00   0.00   47.5    61    5.9    44    10.7   863.5    0.00 
 355   21:10   0.00   43.6    68    5.1   148     6.6   863.6    0.00 
 355   21:20   0.00   43.5    70    4.1   168     6.6   863.5    0.00 
 355   21:30   0.00   43.9    68    5.7   128     8.0   863.6    0.00 
 355   21:40   0.00   41.3    74    5.8   126     8.3   863.5    0.00 
 355   21:50   0.00   38.6    78    5.6    99     8.2   863.6    0.00 
 355   22:00   0.00   36.5    83    5.4   128     7.7   863.6    0.00 
 355   22:10   0.00   36.1    83    5.2    93     8.4   863.9    0.00 
 355   22:20   0.00   37.2    83    5.2   142     7.1   863.9    0.00 
 355   22:30   0.00   36.6    83    3.6   120     5.6   864.1    0.00 
 355   22:40   0.00   35.5    84    3.4   154     5.3   864.2    0.00 
 355   22:50   0.00   36.0    85    2.9   201     5.2   864.3    0.00 
 355   23:00   0.00   35.5    84    1.6    80     4.2   864.4    0.00 
 355   23:10   0.00   34.1    83    1.6    10     2.9   864.4    0.00 
 355   23:20   0.00   32.0    86    1.3   348     4.0   864.5    0.00 
 355   23:30   0.00   32.5    89    1.8   112     2.6   864.5    0.00 
 355   23:40   0.00   31.9    88    2.6   127     4.2   864.4    0.00 
 355   23:50   0.00   30.3    90    3.3   168     4.5   864.4    0.00 
 356    0:00   0.00   29.5    92    1.9   132     2.9   864.4    0.00 
 356    0:10   0.00   30.8    94    1.3    71     2.9   864.4    0.00 
 356    0:20   0.00   30.9    92    1.2   102     3.1   864.4    0.00 
 356    0:30   0.00   30.6    94    1.5    92     3.0   864.4    0.00 
 356    0:40   0.00   31.0    94    1.2   201     3.3   864.3    0.00 
 356    0:50   0.00   29.5    92    1.0   268     3.6   864.5    0.00 
 356    1:00   0.00   29.1    92    1.5    37     4.1   864.5    0.00 
 356    1:10   0.00   28.9    94    1.5    74     3.6   864.3    0.00 
 356    1:20   0.00   30.2    95    0.4    96     1.5   864.3    0.00 
 356    1:30   0.00   29.9    93    0.2   330     2.9   864.2    0.00 
 356    1:40   0.00   29.1    94    1.0   325     2.0   864.2    0.00 

Return to Carson Valley graphs page.


Western Regional Climate Center,wrcc@dri.edu